Time;durP1;ratioP1;P1;durP2;ratioP2;P2;SDS_P1;SDS_P2;PMS_P1;PMS_P2;Temp;Humidity;BMP_temperature;BMP_pressure;BME280_temperature;BME280_humidity;BME280_pressure;Samples;Min_cycle;Max_cycle;Signal;HPM_P1;HPM_P2
2022/12/12 00:00:53;;;;;;;4.07;0.68;;;;;;;-2.53;70.65;101398.72;5115693;27;20551;-82
2022/12/12 00:03:21;;;;;;;1.45;0.90;;;;;;;-2.51;70.79;101397.06;5104319;28;20050;-82
2022/12/12 00:05:48;;;;;;;2.05;0.70;;;;;;;-2.50;70.75;101388.63;5110325;27;20048;-82
2022/12/12 00:08:15;;;;;;;2.67;0.50;;;;;;;-2.47;70.78;101381.88;5105485;28;20047;-82
2022/12/12 00:10:42;;;;;;;1.77;0.85;;;;;;;-2.46;70.96;101388.75;5109107;28;20079;-82
2022/12/12 00:13:09;;;;;;;1.42;0.38;;;;;;;-2.58;70.78;101366.94;5111658;28;20517;-82
2022/12/12 00:15:35;;;;;;;0.93;0.57;;;;;;;-2.43;70.68;101383.75;5108710;28;20461;-82
2022/12/12 00:18:02;;;;;;;1.27;0.70;;;;;;;-2.42;70.95;101383.84;5111109;28;20043;-82
2022/12/12 00:20:30;;;;;;;1.95;0.60;;;;;;;-2.41;70.85;101384.72;5108838;27;20044;-82
2022/12/12 00:22:57;;;;;;;1.90;1.10;;;;;;;-2.38;70.99;101389.97;5107727;27;20696;-82
2022/12/12 00:25:24;;;;;;;1.40;0.82;;;;;;;-2.36;71.04;101390.88;5118021;27;20101;-82
2022/12/12 00:27:51;;;;;;;2.08;0.75;;;;;;;-2.47;70.86;101367.41;5113021;27;20043;-82
2022/12/12 00:30:17;;;;;;;2.03;0.70;;;;;;;-2.32;70.70;101385.09;5113481;28;20060;-82
2022/12/12 00:32:44;;;;;;;2.22;1.20;;;;;;;-2.33;70.86;101380.81;5110481;27;20088;-81
2022/12/12 00:35:11;;;;;;;1.50;0.93;;;;;;;-2.29;70.91;101395.47;5108563;28;20043;-81
2022/12/12 00:37:39;;;;;;;0.73;0.40;;;;;;;-2.29;71.16;101385.25;5106785;27;20097;-81
2022/12/12 00:40:07;;;;;;;0.80;0.60;;;;;;;-2.27;70.85;101379.38;5113167;28;20401;-81
2022/12/12 00:42:34;;;;;;;2.10;0.90;;;;;;;-2.35;70.71;101369.63;5111983;28;20125;-80
2022/12/12 00:45:01;;;;;;;2.17;0.85;;;;;;;-2.22;70.84;101386.38;5108971;27;20047;-82
2022/12/12 00:47:28;;;;;;;1.30;0.75;;;;;;;-2.30;70.54;101373.25;5108675;28;20071;-81
2022/12/12 00:49:55;;;;;;;1.30;0.70;;;;;;;-2.19;70.79;101382.28;5111780;28;20572;-81
2022/12/12 00:52:22;;;;;;;1.38;0.68;;;;;;;-2.17;70.38;101385.75;5104187;28;20036;-81
2022/12/12 00:54:50;;;;;;;1.92;1.00;;;;;;;-2.32;70.33;101346.72;5108658;27;20047;-81
2022/12/12 00:57:17;;;;;;;1.55;1.08;;;;;;;-2.12;70.42;101376.59;5109263;27;20047;-81
2022/12/12 00:59:44;;;;;;;1.35;0.60;;;;;;;-2.10;70.49;101369.88;5099733;28;20670;-81
2022/12/12 01:02:11;;;;;;;0.98;0.63;;;;;;;-2.09;70.39;101363.94;5107942;28;20056;-82
2022/12/12 01:04:38;;;;;;;1.50;0.77;;;;;;;-2.10;70.05;101359.63;5104048;28;20048;-81
2022/12/12 01:07:04;;;;;;;1.52;0.90;;;;;;;-2.07;70.45;101361.44;5104935;27;20055;-81
2022/12/12 01:09:32;;;;;;;2.25;0.60;;;;;;;-2.03;70.15;101369.28;5110896;27;20101;-82
2022/12/12 01:12:00;;;;;;;1.10;0.73;;;;;;;-2.00;70.13;101367.69;5106848;28;20089;-81
2022/12/12 01:14:27;;;;;;;1.65;0.60;;;;;;;-1.99;70.53;101365.19;5108439;28;20054;-81
2022/12/12 01:16:54;;;;;;;2.22;1.00;;;;;;;-1.97;70.37;101362.69;5108563;28;20047;-81
2022/12/12 01:19:21;;;;;;;1.20;0.60;;;;;;;-1.97;70.05;101355.88;5109887;28;20069;-81
2022/12/12 01:21:47;;;;;;;1.23;0.70;;;;;;;-1.96;70.45;101361.91;5100192;28;21347;-81
2022/12/12 01:24:14;;;;;;;0.90;0.45;;;;;;;-1.95;70.01;101372.19;5108192;28;20044;-82
2022/12/12 01:26:41;;;;;;;1.77;0.85;;;;;;;-1.93;70.64;101360.34;5109729;28;20044;-81
2022/12/12 01:29:09;;;;;;;1.40;0.88;;;;;;;-1.91;70.40;101360.38;5102388;28;20043;-81
2022/12/12 01:31:36;;;;;;;2.25;1.20;;;;;;;-1.89;70.00;101362.19;5101318;28;20503;-81
2022/12/12 01:34:03;;;;;;;1.52;0.75;;;;;;;-1.88;70.37;101357.94;5103411;28;20040;-81
2022/12/12 01:36:29;;;;;;;2.28;0.90;;;;;;;-1.88;70.10;101352.81;5105576;28;20047;-81
2022/12/12 01:38:56;;;;;;;1.42;0.70;;;;;;;-1.85;69.96;101352.94;5102117;27;20048;-81
2022/12/12 01:41:24;;;;;;;2.60;0.70;;;;;;;-1.86;70.06;101335.84;5107129;28;20047;-81
2022/12/12 01:43:51;;;;;;;1.98;0.95;;;;;;;-1.84;70.14;101344.47;5110272;28;20328;-82
2022/12/12 01:46:41;;;;;;;1.73;0.98;;;;;;;-1.81;70.25;101344.59;5107896;28;20056;-81
2022/12/12 01:49:19;;;;;;;2.13;1.10;;;;;;;-1.88;69.81;101327.22;5101322;27;20094;-82
2022/12/12 01:51:46;;;;;;;1.48;0.77;;;;;;;-1.81;69.94;101339.47;5105488;28;20109;-81
2022/12/12 01:54:17;;;;;;;1.42;0.90;;;;;;;-1.81;70.04;101329.22;5108073;28;20044;-81
2022/12/12 01:56:46;;;;;;;2.15;0.60;;;;;;;-1.78;69.68;101337.03;5101812;28;20051;-81
2022/12/12 01:59:15;;;;;;;3.33;1.15;;;;;;;-1.85;70.23;101322.22;5106788;28;20445;-82
2022/12/12 02:01:45;;;;;;;2.03;0.80;;;;;;;-1.81;70.05;101324.13;5104100;28;20043;-82
2022/12/12 02:04:12;;;;;;;1.15;0.68;;;;;;;-1.83;70.07;101320.59;5105747;28;20051;-81
2022/12/12 02:06:41;;;;;;;1.00;0.63;;;;;;;-1.85;70.01;101312.88;5104434;28;20048;-82
2022/12/12 02:09:12;;;;;;;2.38;0.70;;;;;;;-1.76;69.96;101332.84;5108360;28;20066;-81
2022/12/12 02:11:45;;;;;;;1.52;0.80;;;;;;;-1.71;70.22;101327.91;5106302;28;20575;-81
2022/12/12 02:14:13;;;;;;;2.53;1.23;;;;;;;-1.79;69.83;101314.81;5105383;28;20050;-81
2022/12/12 02:16:56;;;;;;;1.60;0.75;;;;;;;-1.70;69.51;101338.22;5100576;28;20044;-81
2022/12/12 02:20:00;;;;;;;2.22;1.00;;;;;;;-1.85;69.55;101310.31;5109474;27;20464;-81
2022/12/12 02:22:43;;;;;;;1.92;0.68;;;;;;;-1.77;69.59;101325.97;5094808;28;20047;-81
2022/12/12 02:25:40;;;;;;;1.25;0.80;;;;;;;-1.68;70.00;101333.16;5105518;28;20452;-81
2022/12/12 02:28:47;;;;;;;1.70;0.98;;;;;;;-1.67;69.69;101330.66;5099416;28;20088;-81
2022/12/12 02:31:20;;;;;;;1.63;0.50;;;;;;;-1.65;69.35;101330.69;5105444;28;20047;-81
2022/12/12 02:33:55;;;;;;;1.30;0.80;;;;;;;-1.70;69.48;101317.72;5099988;28;20055;-82
2022/12/12 02:36:31;;;;;;;1.10;0.77;;;;;;;-1.64;69.79;101319.66;5104636;28;20047;-82
2022/12/12 02:39:06;;;;;;;2.65;0.68;;;;;;;-1.65;69.26;101323.03;5104205;27;20308;-81
2022/12/12 02:41:40;;;;;;;3.37;1.07;;;;;;;-1.64;69.89;101322.22;5108659;28;20044;-81
2022/12/12 02:44:17;;;;;;;1.20;0.70;;;;;;;-1.64;69.49;101302.59;5101397;28;20044;-82
2022/12/12 02:46:51;;;;;;;1.92;0.75;;;;;;;-1.71;69.47;101298.03;5107768;28;20055;-81
2022/12/12 02:49:23;;;;;;;3.97;1.17;;;;;;;-1.63;69.12;101316.28;5108170;28;20503;-82
2022/12/12 02:51:51;;;;;;;1.88;0.93;;;;;;;-1.62;69.54;101320.59;5101135;28;20299;-81
2022/12/12 02:54:22;;;;;;;2.55;1.08;;;;;;;-1.63;69.21;101314.59;5107636;28;20055;-81
2022/12/12 02:56:52;;;;;;;2.33;0.70;;;;;;;-1.62;69.57;101324.03;5105701;27;20059;-81
2022/12/12 02:59:24;;;;;;;1.30;0.57;;;;;;;-1.79;69.39;101289.19;5097331;28;20075;-81
2022/12/12 03:02:08;;;;;;;3.05;1.20;;;;;;;-1.62;69.46;101311.22;5101315;28;20055;-81
2022/12/12 03:07:50;;;;;;;1.02;0.70;;;;;;;-1.61;69.48;101310.41;5105114;28;20537;-82
2022/12/12 03:10:31;;;;;;;3.25;1.52;;;;;;;-1.60;69.46;101324.09;5102972;28;20043;-81
2022/12/12 03:13:06;;;;;;;1.63;1.00;;;;;;;-1.59;69.46;101316.47;5102414;28;20043;-82
2022/12/12 03:15:43;;;;;;;4.07;1.00;;;;;;;-1.68;69.06;101308.44;5104483;28;20423;-81
2022/12/12 03:18:21;;;;;;;2.45;1.05;;;;;;;-1.59;69.38;101325.84;5098631;28;20109;-82
2022/12/12 03:20:53;;;;;;;1.55;0.77;;;;;;;-1.67;68.98;101305.03;5098807;28;20060;-82
2022/12/12 03:23:26;;;;;;;2.35;1.10;;;;;;;-1.58;69.32;101333.59;5099396;28;20056;-82
2022/12/12 03:25:58;;;;;;;4.53;1.27;;;;;;;-1.58;68.79;101333.59;5103530;28;20052;-74
2022/12/12 03:28:31;;;;;;;2.03;1.23;;;;;;;-1.56;68.70;101323.41;5101597;28;20036;-74
2022/12/12 03:31:02;;;;;;;3.22;1.08;;;;;;;-1.56;69.13;101323.41;5100560;28;20052;-73
2022/12/12 03:33:37;;;;;;;3.42;1.27;;;;;;;-1.55;69.04;101331.97;5096597;28;20052;-74
2022/12/12 03:36:10;;;;;;;3.72;0.98;;;;;;;-1.54;68.60;101326.00;5097274;28;20089;-73
2022/12/12 03:38:40;;;;;;;2.75;1.20;;;;;;;-1.53;68.78;101335.47;5100113;28;20044;-74
2022/12/12 03:41:13;;;;;;;4.85;1.63;;;;;;;-1.63;68.56;101318.84;5097565;28;20815;-74
2022/12/12 03:43:46;;;;;;;2.25;0.40;;;;;;;-1.55;69.01;101329.41;5094463;28;20188;-75
2022/12/12 03:46:18;;;;;;;3.63;1.85;;;;;;;-1.55;69.26;101329.41;5098602;28;20100;-75
2022/12/12 03:48:51;;;;;;;2.53;1.15;;;;;;;-1.55;69.13;101314.03;5098355;28;20139;-74
2022/12/12 03:51:23;;;;;;;3.45;2.42;;;;;;;-1.55;68.22;101311.47;5098584;28;20047;-75
2022/12/12 03:53:56;;;;;;;2.55;1.40;;;;;;;-1.55;68.51;101311.47;5091787;28;20052;-76
2022/12/12 03:56:30;;;;;;;2.72;1.10;;;;;;;-1.56;69.02;101308.03;5101368;28;20044;-75
2022/12/12 03:59:02;;;;;;;2.90;1.83;;;;;;;-1.58;68.58;101310.53;5101607;28;20092;-75
2022/12/12 04:01:36;;;;;;;1.90;0.90;;;;;;;-1.54;68.71;101308.06;5099965;28;20051;-74
2022/12/12 04:04:11;;;;;;;3.50;1.42;;;;;;;-1.56;68.70;101302.91;5099648;28;20052;-74
2022/12/12 04:06:39;;;;;;;;;;;;;;;-1.51;68.96;101313.31;5099799;28;20201;-75
2022/12/12 04:15:04;;;;;;;2.83;1.20;;;;;;;-1.51;68.66;101303.94;5096073;28;20096;-74
2022/12/12 04:17:37;;;;;;;3.72;0.85;;;;;;;-1.50;68.46;101302.28;5101606;28;20040;-75
2022/12/12 04:23:17;;;;;;;6.00;3.13;;;;;;;-1.51;68.16;101305.63;5099023;28;20078;-74
2022/12/12 04:29:00;;;;;;;1.67;0.85;;;;;;;-1.53;68.02;101299.59;5099130;28;20058;-75
2022/12/12 04:31:30;;;;;;;3.53;1.50;;;;;;;-1.51;67.74;101305.63;5098562;28;20453;-75
2022/12/12 04:34:04;;;;;;;1.92;1.00;;;;;;;-1.50;68.26;101303.16;5099064;28;20457;-75
2022/12/12 04:36:35;;;;;;;2.85;1.40;;;;;;;-1.48;67.95;101305.75;5095516;28;20731;-74
2022/12/12 04:39:03;;;;;;;1.52;0.85;;;;;;;-1.47;68.07;101304.97;5100760;28;20101;-75
2022/12/12 04:41:35;;;;;;;2.88;1.25;;;;;;;-1.50;67.82;101287.78;5098296;28;20055;-76
2022/12/12 04:44:06;;;;;;;2.55;1.30;;;;;;;-1.46;67.78;101296.44;5104144;28;20039;-75
2022/12/12 04:46:34;;;;;;;4.00;1.40;;;;;;;-1.44;67.77;101305.94;5103240;28;20044;-74
2022/12/12 04:49:06;;;;;;;2.40;1.08;;;;;;;-1.43;68.04;101302.56;5102503;28;20522;-75
2022/12/12 04:51:41;;;;;;;2.72;1.05;;;;;;;-1.46;68.51;101291.31;5103772;28;20040;-75
2022/12/12 04:54:14;;;;;;;5.10;1.45;;;;;;;-1.41;68.30;101289.81;5101482;28;20040;-75
2022/12/12 04:56:43;;;;;;;2.67;1.00;;;;;;;-1.47;68.14;101287.03;5104301;28;20043;-75
2022/12/12 04:59:11;;;;;;;2.00;0.77;;;;;;;-1.46;67.62;101287.06;5101533;28;20043;-75
2022/12/12 05:01:45;;;;;;;3.47;0.88;;;;;;;-1.51;67.56;101285.13;5104905;28;20099;-75
2022/12/12 05:04:17;;;;;;;4.65;1.08;;;;;;;-1.38;68.03;101300.19;5104382;28;20048;-74
2022/12/12 05:06:50;;;;;;;2.80;0.70;;;;;;;-1.39;68.29;101301.00;5100105;28;20080;-75
2022/12/12 05:09:18;;;;;;;2.83;1.50;;;;;;;-1.38;67.70;101301.03;5101753;27;20043;-75
2022/12/12 05:11:47;;;;;;;3.65;1.30;;;;;;;-1.36;67.62;101303.69;5102462;28;20089;-74
2022/12/12 05:14:17;;;;;;;2.40;1.23;;;;;;;-1.40;67.43;101287.28;5098720;28;20047;-74
2022/12/12 05:16:47;;;;;;;2.05;1.27;;;;;;;-1.37;67.41;101296.78;5100889;28;20548;-75
2022/12/12 05:19:14;;;;;;;2.17;1.10;;;;;;;-1.37;66.99;101291.66;5102491;28;20115;-75
2022/12/12 05:21:41;;;;;;;3.90;0.93;;;;;;;-1.36;67.47;101290.88;5097899;28;20047;-75
2022/12/12 05:24:09;;;;;;;3.15;1.42;;;;;;;-1.40;67.01;101286.44;5100184;28;20052;-75
2022/12/12 05:26:36;;;;;;;2.30;0.90;;;;;;;-1.36;67.22;101301.13;5100058;28;20479;-75
2022/12/12 05:29:05;;;;;;;2.88;1.23;;;;;;;-1.40;67.12;101287.28;5105454;28;20074;-88
2022/12/12 05:31:32;;;;;;;2.10;0.95;;;;;;;-1.54;67.21;101269.66;5100794;28;20047;-88
2022/12/12 05:33:59;;;;;;;3.50;1.35;;;;;;;-1.37;67.20;101302.81;5105613;27;20093;-88
2022/12/12 05:36:26;;;;;;;2.60;0.90;;;;;;;-1.41;67.53;101290.69;5104625;28;20043;-88
2022/12/12 05:38:53;;;;;;;1.25;0.57;;;;;;;-1.34;67.45;101303.72;5105593;28;20060;-88
2022/12/12 05:41:21;;;;;;;2.75;1.35;;;;;;;-1.35;66.94;101290.03;5110254;27;20043;-88
2022/12/12 05:43:48;;;;;;;3.40;1.65;;;;;;;-1.34;66.95;101290.91;5105745;28;20414;-85
2022/12/12 05:46:15;;;;;;;2.38;1.00;;;;;;;-1.38;66.67;101289.94;5103121;28;20048;-86
2022/12/12 05:48:43;;;;;;;1.80;0.80;;;;;;;-1.36;66.97;101285.75;5100915;28;20044;-85
2022/12/12 05:51:10;;;;;;;2.88;1.10;;;;;;;-1.36;66.94;101290.88;5115708;27;20047;-82
2022/12/12 05:53:36;;;;;;;2.95;0.90;;;;;;;-1.36;66.85;101289.19;5104035;28;20066;-82
2022/12/12 05:56:05;;;;;;;1.00;0.60;;;;;;;-1.36;66.38;101289.19;5097716;28;20089;-80
2022/12/12 05:58:33;;;;;;;0.45;0.30;;;;;;;-1.38;66.18;101287.38;5107330;27;20051;-80
2022/12/12 06:01:03;;;;;;;2.28;1.75;;;;;;;-1.39;66.05;101281.38;5103065;28;20052;-81
2022/12/12 06:03:31;;;;;;;2.38;1.10;;;;;;;-1.39;65.64;101294.19;5105374;28;20122;-80
2022/12/12 06:05:57;;;;;;;4.25;0.95;;;;;;;-1.39;66.08;101283.06;5101703;28;20098;-80
2022/12/12 06:08:24;;;;;;;2.15;1.27;;;;;;;-1.40;65.76;101281.31;5108827;27;20066;-80
2022/12/12 06:10:51;;;;;;;4.95;1.35;;;;;;;-1.40;65.10;101287.28;5104608;28;20040;-80
2022/12/12 06:13:18;;;;;;;1.73;0.88;;;;;;;-1.39;65.50;101283.94;5112267;27;20093;-80
2022/12/12 06:15:46;;;;;;;1.77;0.90;;;;;;;-1.42;66.14;101268.44;5104391;28;20044;-80
2022/12/12 06:18:13;;;;;;;3.00;1.00;;;;;;;-1.36;65.62;101267.81;5102673;28;20052;-80
2022/12/12 06:20:39;;;;;;;2.35;1.38;;;;;;;-1.46;66.12;101246.06;5109370;27;20460;-80
2022/12/12 06:23:06;;;;;;;3.33;0.82;;;;;;;-1.34;65.60;101271.28;5095996;28;20052;-80
2022/12/12 06:25:33;;;;;;;2.67;1.50;;;;;;;-1.32;65.40;101273.91;5112688;27;20059;-82
2022/12/12 06:28:00;;;;;;;5.85;0.73;;;;;;;-1.31;65.57;101270.53;5101118;27;20048;-80
2022/12/12 06:30:27;;;;;;;1.23;0.70;;;;;;;-1.30;65.61;101267.16;5103441;28;20039;-80
2022/12/12 06:32:55;;;;;;;2.63;0.63;;;;;;;-1.31;65.02;101257.72;5097977;28;20450;-80
2022/12/12 06:35:22;;;;;;;1.85;0.90;;;;;;;-1.31;65.10;101258.59;5099905;28;20040;-81
2022/12/12 06:37:49;;;;;;;3.60;1.20;;;;;;;-1.38;63.98;101246.38;5098176;28;20419;-79
2022/12/12 06:40:16;;;;;;;1.77;0.80;;;;;;;-1.35;64.55;101261.84;5103862;28;20036;-79
2022/12/12 06:42:43;;;;;;;3.78;1.05;;;;;;;-1.32;64.27;101268.78;5096972;28;20446;-82
2022/12/12 06:45:10;;;;;;;4.68;1.15;;;;;;;-1.33;63.65;101283.28;5101429;28;20044;-83
2022/12/12 06:47:37;;;;;;;2.20;0.63;;;;;;;-1.39;64.06;101262.56;5096579;28;20059;-81
2022/12/12 06:50:06;;;;;;;2.22;0.88;;;;;;;-1.32;64.54;101271.34;5105445;28;20059;-80
2022/12/12 06:52:33;;;;;;;4.90;1.25;;;;;;;-1.31;64.93;101276.53;5094711;28;20428;-80
2022/12/12 06:54:59;;;;;;;6.07;1.17;;;;;;;-1.32;65.08;101272.22;5103694;28;20097;-82
2022/12/12 06:57:27;;;;;;;3.58;1.10;;;;;;;-1.40;64.15;101256.53;5096253;28;20044;-84
2022/12/12 06:59:54;;;;;;;0.10;0.10;;;;;;;-1.29;65.27;101277.47;5098003;27;20449;-80
2022/12/12 07:02:20;;;;;;;2.67;1.17;;;;;;;-1.30;65.28;101282.53;5108293;28;20774;-82
2022/12/12 07:04:47;;;;;;;2.80;0.65;;;;;;;-1.30;65.24;101282.53;5102853;28;20125;-85
2022/12/12 07:07:15;;;;;;;3.38;1.10;;;;;;;-1.29;65.21;101274.91;5097106;28;20040;-85
2022/12/12 07:09:42;;;;;;;1.05;0.80;;;;;;;-1.34;65.53;101257.59;5100563;28;20471;-85
2022/12/12 07:12:09;;;;;;;2.08;1.00;;;;;;;-1.29;65.61;101264.66;5099184;28;20565;-85
2022/12/12 07:14:38;;;;;;;2.15;1.25;;;;;;;-1.27;65.52;101262.16;5101936;28;20039;-85
2022/12/12 07:17:05;;;;;;;1.70;0.98;;;;;;;-1.38;65.59;101231.84;5100800;28;20051;-85
2022/12/12 07:19:32;;;;;;;4.95;1.00;;;;;;;-1.28;65.78;101250.13;5097871;28;20081;-84
2022/12/12 07:21:59;;;;;;;8.15;1.55;;;;;;;-1.29;65.99;101239.00;5103468;28;20047;-85
2022/12/12 07:24:27;;;;;;;2.13;1.25;;;;;;;-1.30;65.82;101241.53;5098854;28;20468;-85
2022/12/12 07:26:54;;;;;;;3.08;1.20;;;;;;;-1.29;66.11;101245.84;5107468;28;20047;-85
2022/12/12 07:29:20;;;;;;;2.95;0.93;;;;;;;-1.29;66.11;101243.28;5104577;28;20721;-85
2022/12/12 07:31:47;;;;;;;3.17;1.20;;;;;;;-1.29;65.63;101240.72;5103181;28;20472;-85
2022/12/12 07:34:14;;;;;;;2.33;1.05;;;;;;;-1.29;66.32;101241.56;5108018;28;20444;-71
2022/12/12 07:36:41;;;;;;;1.65;0.98;;;;;;;-1.30;66.29;101238.97;5096627;28;20047;-71
2022/12/12 07:39:07;;;;;;;2.42;1.30;;;;;;;-1.32;66.03;101236.34;5096048;28;20104;-71
2022/12/12 07:41:36;;;;;;;3.60;1.35;;;;;;;-1.30;65.88;101247.53;5091734;28;20098;-71
2022/12/12 07:44:03;;;;;;;3.17;1.50;;;;;;;-1.30;66.56;101252.66;5093898;28;20073;-70
2022/12/12 07:46:30;;;;;;;2.75;1.20;;;;;;;-1.31;66.53;101240.66;5095985;28;20753;-71
2022/12/12 07:48:57;;;;;;;2.55;0.85;;;;;;;-1.33;66.57;101233.75;5095795;28;20048;-71
2022/12/12 07:51:24;;;;;;;3.35;1.80;;;;;;;-1.33;66.12;101232.03;5100525;28;20465;-70
2022/12/12 07:53:51;;;;;;;3.03;0.98;;;;;;;-1.36;66.42;101230.22;5098102;28;20052;-71
2022/12/12 07:56:19;;;;;;;3.03;1.10;;;;;;;-1.35;66.45;101228.53;5101477;28;20052;-71
2022/12/12 07:58:47;;;;;;;5.40;1.42;;;;;;;-1.37;66.56;101219.91;5095204;28;20051;-71
2022/12/12 08:01:16;;;;;;;2.55;1.13;;;;;;;-1.37;66.87;101222.47;5098978;28;20048;-71
2022/12/12 08:03:43;;;;;;;3.70;1.23;;;;;;;-1.38;66.81;101213.91;5099123;28;20121;-71
2022/12/12 08:06:10;;;;;;;2.03;1.00;;;;;;;-1.38;66.50;101213.06;5091101;28;20089;-71
2022/12/12 08:08:37;;;;;;;4.63;1.90;;;;;;;-1.38;67.29;101213.06;5094592;28;20491;-71
2022/12/12 08:11:09;;;;;;;4.90;1.70;;;;;;;-1.37;67.19;101207.09;5095496;28;20078;-71
2022/12/12 08:13:36;;;;;;;2.35;1.30;;;;;;;-1.42;67.02;101196.69;5097112;28;20054;-71
2022/12/12 08:16:06;;;;;;;3.08;1.08;;;;;;;-1.38;67.29;101203.66;5093694;28;20052;-70
2022/12/12 08:18:34;;;;;;;4.07;1.55;;;;;;;-1.41;66.67;101197.56;5099680;28;20048;-70
2022/12/12 08:21:01;;;;;;;4.20;1.83;;;;;;;-1.41;67.21;101203.56;5097430;28;20060;-69
2022/12/12 08:23:27;;;;;;;2.45;1.30;;;;;;;-1.39;67.40;101198.50;5098079;28;20096;-70
2022/12/12 08:25:54;;;;;;;4.10;1.25;;;;;;;-1.39;66.77;101201.06;5101985;27;20047;-71
2022/12/12 08:28:21;;;;;;;2.60;1.10;;;;;;;-1.43;67.34;101194.06;5101413;28;20054;-70
2022/12/12 08:30:51;;;;;;;2.33;1.17;;;;;;;-1.39;67.29;101201.94;5103542;27;20058;-71
2022/12/12 08:33:19;;;;;;;3.97;1.15;;;;;;;-1.41;67.35;101195.00;5102128;28;20120;-70
2022/12/12 08:35:46;;;;;;;4.88;1.60;;;;;;;-1.41;67.58;101197.56;5100786;28;20092;-71
2022/12/12 08:38:13;;;;;;;2.42;1.00;;;;;;;-1.44;67.52;101182.94;5105117;27;20050;-71
2022/12/12 08:40:40;;;;;;;2.15;1.15;;;;;;;-1.40;67.59;101187.34;5097131;27;20128;-71
2022/12/12 08:43:07;;;;;;;2.08;1.05;;;;;;;-1.39;67.37;101180.56;5099312;28;20552;-73
2022/12/12 08:45:34;;;;;;;2.47;1.10;;;;;;;-1.41;67.22;101182.19;5098773;28;20048;-75
2022/12/12 08:48:01;;;;;;;1.85;1.30;;;;;;;-1.39;67.62;101167.75;5101929;28;20055;-76
2022/12/12 08:50:29;;;;;;;3.15;1.45;;;;;;;-1.51;67.15;101144.22;5104437;28;20607;-75
2022/12/12 08:52:56;;;;;;;1.55;1.00;;;;;;;-1.40;67.04;101173.69;5102788;28;20044;-75
2022/12/12 08:55:22;;;;;;;2.67;1.25;;;;;;;-1.43;67.22;101171.88;5099445;28;20573;-74
2022/12/12 08:57:49;;;;;;;2.67;1.10;;;;;;;-1.44;67.17;101172.69;5104083;28;20039;-75
2022/12/12 09:00:16;;;;;;;1.48;0.95;;;;;;;-1.45;66.76;101160.72;5099387;28;20044;-75
2022/12/12 09:02:44;;;;;;;2.28;0.90;;;;;;;-1.46;66.66;101161.50;5101915;27;20050;-73
2022/12/12 09:05:11;;;;;;;1.50;1.02;;;;;;;-1.47;66.61;101157.22;5103912;28;20138;-73
2022/12/12 09:07:39;;;;;;;1.77;1.25;;;;;;;-1.47;67.00;101146.97;5101939;28;20492;-75
2022/12/12 09:10:07;;;;;;;3.28;0.95;;;;;;;-1.48;67.15;101141.78;5104513;28;20051;-75
2022/12/12 09:12:34;;;;;;;2.60;0.75;;;;;;;-1.47;66.88;101135.84;5102059;28;20054;-74
2022/12/12 09:15:01;;;;;;;1.55;1.10;;;;;;;-1.45;67.00;101140.22;5102768;28;20179;-75
2022/12/12 09:17:28;;;;;;;0.85;0.55;;;;;;;-1.44;67.15;101139.38;5102309;28;20418;-75
2022/12/12 09:19:55;;;;;;;1.05;0.50;;;;;;;-1.44;66.83;101131.69;5098233;28;20051;-75
2022/12/12 09:22:21;;;;;;;3.83;1.02;;;;;;;-1.44;66.99;101130.84;5101161;28;20131;-75
2022/12/12 09:24:49;;;;;;;1.85;1.25;;;;;;;-1.50;66.62;101115.25;5101024;27;20631;-74
2022/12/12 09:27:16;;;;;;;5.00;0.90;;;;;;;-1.47;66.66;101125.59;5099027;28;20605;-75
2022/12/12 09:29:43;;;;;;;3.33;1.00;;;;;;;-1.51;66.66;101113.47;5098474;28;20473;-75
2022/12/12 09:32:10;;;;;;;3.88;1.17;;;;;;;-1.49;66.40;101112.72;5101852;27;20789;-77
2022/12/12 09:34:37;;;;;;;2.58;1.00;;;;;;;-1.46;66.84;101117.09;5102341;28;20059;-73
2022/12/12 09:37:04;;;;;;;3.25;0.90;;;;;;;-1.50;66.50;101113.56;5100385;28;20040;-75
2022/12/12 09:39:31;;;;;;;2.42;1.35;;;;;;;-1.53;66.25;101105.75;5100827;28;20040;-73
2022/12/12 09:42:09;;;;;;;1.73;0.82;;;;;;;-1.49;66.84;101096.50;5101350;28;20048;-74
2022/12/12 09:44:37;;;;;;;3.35;0.95;;;;;;;-1.53;66.62;101103.19;5101584;28;20560;-73
2022/12/12 09:47:09;;;;;;;1.48;0.70;;;;;;;-1.48;66.94;101111.03;5103660;28;20109;-73
2022/12/12 09:49:42;;;;;;;4.28;1.10;;;;;;;-1.48;66.45;101099.13;5097788;28;20089;-72
2022/12/12 09:52:12;;;;;;;2.20;1.17;;;;;;;-1.48;66.69;101096.56;5096921;28;20393;-73
2022/12/12 09:54:39;;;;;;;1.67;1.00;;;;;;;-1.48;66.00;101093.09;5101728;28;20089;-72
2022/12/12 09:57:20;;;;;;;4.28;1.33;;;;;;;-1.52;66.51;101091.25;5102905;28;20043;-72
2022/12/12 09:59:55;;;;;;;1.27;0.90;;;;;;;-1.48;66.42;101096.56;5100713;28;20765;-72
2022/12/12 10:02:46;;;;;;;1.58;0.80;;;;;;;-1.49;66.36;101097.34;5099788;28;20043;-72
2022/12/12 10:05:22;;;;;;;1.88;1.10;;;;;;;-1.50;66.51;101100.75;5101857;27;20048;-70
2022/12/12 10:07:59;;;;;;;2.05;0.88;;;;;;;-1.49;66.35;101096.50;5099475;28;20051;-71
2022/12/12 10:10:31;;;;;;;1.33;0.85;;;;;;;-1.60;66.36;101076.47;5102958;27;20044;-72
2022/12/12 10:13:01;;;;;;;2.45;0.90;;;;;;;-1.53;65.63;101085.25;5098220;28;20491;-72
2022/12/12 10:15:33;;;;;;;2.10;0.73;;;;;;;-1.54;66.13;101082.63;5102356;28;20050;-71
2022/12/12 10:18:05;;;;;;;1.33;0.90;;;;;;;-1.54;65.93;101082.63;5098935;28;20040;-70
2022/12/12 10:20:35;;;;;;;1.90;1.40;;;;;;;-1.52;66.03;101087.00;5093897;28;20052;-70
2022/12/12 10:23:07;;;;;;;2.30;1.20;;;;;;;-1.52;66.16;101073.31;5099736;28;20655;-71
2022/12/12 10:25:43;;;;;;;2.40;1.30;;;;;;;-1.53;65.94;101079.28;5099257;27;20052;-70
2022/12/12 10:28:14;;;;;;;4.28;1.13;;;;;;;-1.55;66.20;101073.22;5101428;28;20047;-72
2022/12/12 10:31:00;;;;;;;1.90;0.93;;;;;;;-1.53;66.42;101066.47;5100595;28;20511;-72
2022/12/12 10:33:35;;;;;;;2.08;0.68;;;;;;;-1.56;65.77;101064.66;5100363;28;20091;-73
2022/12/12 10:36:13;;;;;;;1.65;0.70;;;;;;;-1.61;66.15;101045.69;5102863;28;20051;-71
2022/12/12 10:38:57;;;;;;;2.58;1.33;;;;;;;-1.56;65.91;101056.97;5099428;27;20492;-70
2022/12/12 10:41:33;;;;;;;1.60;0.93;;;;;;;-1.56;66.43;101053.56;5094946;27;20046;-70
2022/12/12 10:44:05;;;;;;;2.58;1.88;;;;;;;-1.56;65.93;101054.41;5103486;27;20048;-71
2022/12/12 10:46:39;;;;;;;3.35;1.55;;;;;;;-1.60;65.43;101034.63;5100617;28;20064;-71
2022/12/12 10:49:15;;;;;;;2.40;1.10;;;;;;;-1.58;65.85;101038.13;5093706;28;20044;-71
2022/12/12 10:51:43;;;;;;;1.85;0.85;;;;;;;-1.60;65.42;101042.31;5095987;28;20040;-71
2022/12/12 10:54:18;;;;;;;2.15;1.67;;;;;;;-1.61;65.38;101038.00;5097051;28;20058;-71
2022/12/12 10:57:13;;;;;;;1.55;0.98;;;;;;;-1.61;65.34;101038.00;5096609;28;20071;-70
2022/12/12 10:59:44;;;;;;;4.30;1.35;;;;;;;-1.63;65.53;101035.38;5100745;28;20046;-76
2022/12/12 11:02:29;;;;;;;1.42;0.57;;;;;;;-1.62;65.46;101033.72;5101159;28;20039;-71
2022/12/12 11:05:02;;;;;;;3.55;0.90;;;;;;;-1.63;65.40;101037.06;5096114;28;20727;-72
2022/12/12 11:07:29;;;;;;;2.72;0.88;;;;;;;-1.62;65.93;101020.91;5098860;27;20051;-71
2022/12/12 11:09:57;;;;;;;2.00;0.75;;;;;;;-1.64;65.78;101020.84;5100472;28;20079;-74
2022/12/12 11:12:33;;;;;;;2.17;1.35;;;;;;;-1.61;66.01;101022.66;5099722;28;20040;-73
2022/12/12 11:15:06;;;;;;;1.40;0.80;;;;;;;-1.62;65.40;101008.97;5098601;28;20056;-72
2022/12/12 11:17:34;;;;;;;2.10;1.08;;;;;;;-1.62;65.62;101019.22;5097976;28;20135;-72
2022/12/12 11:20:02;;;;;;;1.55;0.98;;;;;;;-1.63;65.72;101014.88;5098595;28;20104;-71
2022/12/12 11:22:32;;;;;;;2.28;0.93;;;;;;;-1.62;65.82;101008.97;5097012;28;20068;-72
2022/12/12 11:25:00;;;;;;;1.67;1.15;;;;;;;-1.62;65.87;101008.97;5094322;28;20124;-72
2022/12/12 11:27:30;;;;;;;0.75;0.52;;;;;;;-1.66;65.34;100989.16;5097593;28;20040;-72
2022/12/12 11:30:00;;;;;;;2.97;0.80;;;;;;;-1.70;65.68;100968.53;5094605;28;20960;-72
2022/12/12 11:32:32;;;;;;;1.67;1.05;;;;;;;-1.63;65.57;100990.97;5099698;28;20054;-72
2022/12/12 11:35:01;;;;;;;2.80;1.05;;;;;;;-1.71;65.79;100974.47;5099030;28;20043;-72
2022/12/12 11:37:44;;;;;;;3.67;1.23;;;;;;;-1.71;65.76;100974.47;5096446;28;20048;-72
2022/12/12 11:40:23;;;;;;;1.33;0.88;;;;;;;-1.62;65.51;100982.50;5105104;28;20396;-72
2022/12/12 11:42:50;;;;;;;1.10;0.50;;;;;;;-1.66;65.78;100965.25;5094385;28;20407;-71
2022/12/12 11:45:22;;;;;;;2.78;1.20;;;;;;;-1.63;65.71;100966.22;5099384;28;20047;-72
2022/12/12 11:47:50;;;;;;;1.42;0.90;;;;;;;-1.64;65.37;100967.06;5097062;28;20048;-71
2022/12/12 11:50:20;;;;;;;5.00;1.00;;;;;;;-1.69;65.59;100960.03;5095203;28;20047;-71
2022/12/12 11:52:48;;;;;;;1.30;0.43;;;;;;;-1.72;66.31;100953.13;5100549;28;20052;-72